createdAt,value
2018-07-21T00:01:06.483Z,8.03
2018-07-21T00:03:40.070Z,8.97
2018-07-21T00:06:09.604Z,8.20
2018-07-21T00:08:39.122Z,8.77
2018-07-21T00:11:12.807Z,7.70
2018-07-21T00:13:47.029Z,8.40
2018-07-21T00:25:45.861Z,8.10
2018-07-21T00:28:15.351Z,7.90
2018-07-21T00:30:46.374Z,10.53
2018-07-21T00:33:47.993Z,9.37
2018-07-21T00:36:18.643Z,6.80
2018-07-21T00:38:47.932Z,9.53
2018-07-21T00:41:16.519Z,6.67
2018-07-21T00:43:45.396Z,7.20
2018-07-21T00:46:14.062Z,6.40
2018-07-21T00:48:42.878Z,8.73
2018-07-21T00:51:11.835Z,8.73
2018-07-21T00:53:46.582Z,8.73
2018-07-21T00:56:15.082Z,7.33
2018-07-21T00:58:43.902Z,8.03
2018-07-21T01:01:13.566Z,8.60
2018-07-21T01:03:42.521Z,7.10
2018-07-21T01:42:50.215Z,6.47
2018-07-21T01:45:37.056Z,6.83
2018-07-21T01:48:08.943Z,6.77
2018-07-21T01:50:37.578Z,7.40
2018-07-21T01:53:09.504Z,7.30
2018-07-21T02:03:54.466Z,6.63
2018-07-21T02:06:27.531Z,7.00
2018-07-21T02:09:04.566Z,7.13
2018-07-21T02:11:37.155Z,7.63
2018-07-21T02:14:06.569Z,7.07
2018-07-21T02:32:01.339Z,7.57
2018-07-21T02:34:34.056Z,6.97
2018-07-21T02:37:03.526Z,6.83
2018-07-21T02:42:23.238Z,7.50
2018-07-21T02:45:05.376Z,7.37
2018-07-21T02:51:23.851Z,9.07
2018-07-21T02:54:07.137Z,7.70
2018-07-21T03:02:18.802Z,7.73
2018-07-21T03:04:52.649Z,8.13
2018-07-21T03:07:21.968Z,8.00
2018-07-21T03:09:51.118Z,8.37
2018-07-21T03:12:21.745Z,11.00
2018-07-21T03:14:53.509Z,11.57
2018-07-21T03:36:30.675Z,13.60
2018-07-21T03:39:09.961Z,9.53
2018-07-21T03:41:43.314Z,10.63
2018-07-21T03:44:16.700Z,10.10
2018-07-21T03:46:53.647Z,10.67
2018-07-21T03:49:25.799Z,13.73
2018-07-21T03:51:54.718Z,10.53
2018-07-21T03:54:29.599Z,10.07
2018-07-21T03:56:58.879Z,12.67
2018-07-21T03:59:32.241Z,10.97
2018-07-21T19:58:10.431Z,35.07
2018-07-21T20:00:39.388Z,36.30
2018-07-21T20:03:09.645Z,35.83
2018-07-21T20:05:38.867Z,35.33
2018-07-21T22:16:21.349Z,56.87
2018-07-21T22:18:49.919Z,56.57
2018-07-21T22:21:18.938Z,56.27
2018-07-21T22:23:47.612Z,54.50
2018-07-21T22:26:16.954Z,52.00
2018-07-21T22:28:45.380Z,52.20
2018-07-21T22:31:13.819Z,51.60
2018-07-21T22:33:42.335Z,48.53
2018-07-21T22:36:10.817Z,51.00
2018-07-21T22:38:39.459Z,53.10
2018-07-21T22:41:07.921Z,50.47
2018-07-21T22:43:36.583Z,50.57
2018-07-21T22:46:05.339Z,54.83
2018-07-21T22:48:33.998Z,53.77
2018-07-21T22:51:02.864Z,54.17
2018-07-21T22:53:31.601Z,55.77
2018-07-21T22:56:00.163Z,54.30
2018-07-21T22:58:29.605Z,54.37
2018-07-21T23:00:58.157Z,57.07
2018-07-21T23:03:26.787Z,57.67
2018-07-21T23:05:55.686Z,61.17
2018-07-21T23:08:24.491Z,60.37
2018-07-21T23:10:53.110Z,62.60
2018-07-21T23:13:21.907Z,57.80
2018-07-21T23:15:50.828Z,60.90
2018-07-21T23:18:20.871Z,65.33
2018-07-21T23:20:49.539Z,67.27
2018-07-21T23:23:18.295Z,65.77
2018-07-21T23:25:47.174Z,65.07
2018-07-21T23:28:15.873Z,64.70
2018-07-21T23:30:44.336Z,58.60
2018-07-21T23:33:12.773Z,59.50
2018-07-21T23:35:41.458Z,54.10
2018-07-21T23:38:10.016Z,60.17
2018-07-21T23:40:38.599Z,66.40
2018-07-21T23:43:07.277Z,65.47
2018-07-21T23:45:36.364Z,60.50
2018-07-21T23:48:04.761Z,61.83
2018-07-21T23:50:33.298Z,63.27
2018-07-21T23:53:01.687Z,61.23
2018-07-21T23:55:30.329Z,60.37
2018-07-21T23:57:58.825Z,64.60
